sensor_id;sensor_type;location;lat;lon;timestamp;P1;durP1;ratioP1;P2;durP2;ratioP2
24801;SDS011;12898;50.520;12.152;2023-12-20T00:01:48;4.47;;;2.60;;
24801;SDS011;12898;50.520;12.152;2023-12-20T00:04:14;3.63;;;2.37;;
24801;SDS011;12898;50.520;12.152;2023-12-20T00:06:40;3.80;;;2.20;;
24801;SDS011;12898;50.520;12.152;2023-12-20T00:09:06;2.93;;;2.00;;
24801;SDS011;12898;50.520;12.152;2023-12-20T00:11:32;3.63;;;2.10;;
24801;SDS011;12898;50.520;12.152;2023-12-20T00:13:57;3.33;;;2.20;;
24801;SDS011;12898;50.520;12.152;2023-12-20T00:16:23;5.70;;;2.50;;
24801;SDS011;12898;50.520;12.152;2023-12-20T00:18:49;3.20;;;2.30;;
24801;SDS011;12898;50.520;12.152;2023-12-20T00:21:15;3.63;;;2.20;;
24801;SDS011;12898;50.520;12.152;2023-12-20T00:23:40;4.00;;;2.40;;
24801;SDS011;12898;50.520;12.152;2023-12-20T00:26:06;3.97;;;2.10;;
24801;SDS011;12898;50.520;12.152;2023-12-20T00:28:32;3.53;;;2.30;;
24801;SDS011;12898;50.520;12.152;2023-12-20T00:30:57;2.90;;;2.20;;
24801;SDS011;12898;50.520;12.152;2023-12-20T00:33:23;3.03;;;2.13;;
24801;SDS011;12898;50.520;12.152;2023-12-20T00:35:49;3.53;;;2.20;;
24801;SDS011;12898;50.520;12.152;2023-12-20T00:38:15;4.03;;;2.10;;
24801;SDS011;12898;50.520;12.152;2023-12-20T00:40:41;3.03;;;2.23;;
24801;SDS011;12898;50.520;12.152;2023-12-20T00:43:06;3.67;;;2.23;;
24801;SDS011;12898;50.520;12.152;2023-12-20T00:45:32;3.00;;;2.03;;
24801;SDS011;12898;50.520;12.152;2023-12-20T00:47:58;3.30;;;2.00;;
24801;SDS011;12898;50.520;12.152;2023-12-20T00:50:24;3.43;;;2.23;;
24801;SDS011;12898;50.520;12.152;2023-12-20T00:52:50;2.67;;;1.70;;
24801;SDS011;12898;50.520;12.152;2023-12-20T00:55:15;3.00;;;1.73;;
24801;SDS011;12898;50.520;12.152;2023-12-20T00:57:41;2.37;;;1.60;;
24801;SDS011;12898;50.520;12.152;2023-12-20T01:00:07;2.37;;;1.77;;
24801;SDS011;12898;50.520;12.152;2023-12-20T01:02:36;1.87;;;1.50;;
24801;SDS011;12898;50.520;12.152;2023-12-20T01:05:02;2.53;;;1.70;;
24801;SDS011;12898;50.520;12.152;2023-12-20T01:07:28;2.63;;;1.30;;
24801;SDS011;12898;50.520;12.152;2023-12-20T01:09:54;2.00;;;1.37;;
24801;SDS011;12898;50.520;12.152;2023-12-20T01:12:19;1.47;;;1.13;;
24801;SDS011;12898;50.520;12.152;2023-12-20T01:14:45;1.00;;;0.90;;
24801;SDS011;12898;50.520;12.152;2023-12-20T01:17:11;1.50;;;0.77;;
24801;SDS011;12898;50.520;12.152;2023-12-20T01:19:37;1.37;;;0.83;;
24801;SDS011;12898;50.520;12.152;2023-12-20T01:22:03;0.80;;;0.80;;
24801;SDS011;12898;50.520;12.152;2023-12-20T01:24:29;1.40;;;0.83;;
24801;SDS011;12898;50.520;12.152;2023-12-20T01:26:55;1.07;;;0.80;;
24801;SDS011;12898;50.520;12.152;2023-12-20T01:29:21;2.30;;;0.80;;
24801;SDS011;12898;50.520;12.152;2023-12-20T01:31:47;1.77;;;0.83;;
24801;SDS011;12898;50.520;12.152;2023-12-20T01:34:12;1.00;;;0.90;;
24801;SDS011;12898;50.520;12.152;2023-12-20T01:36:38;1.60;;;1.00;;
24801;SDS011;12898;50.520;12.152;2023-12-20T01:39:04;1.40;;;1.00;;
24801;SDS011;12898;50.520;12.152;2023-12-20T01:41:29;1.03;;;0.97;;
24801;SDS011;12898;50.520;12.152;2023-12-20T01:43:55;1.10;;;0.90;;
24801;SDS011;12898;50.520;12.152;2023-12-20T01:46:21;0.97;;;0.80;;
24801;SDS011;12898;50.520;12.152;2023-12-20T01:48:47;1.50;;;1.00;;
24801;SDS011;12898;50.520;12.152;2023-12-20T01:51:14;1.50;;;0.90;;
24801;SDS011;12898;50.520;12.152;2023-12-20T01:53:40;0.87;;;0.87;;
24801;SDS011;12898;50.520;12.152;2023-12-20T01:56:07;0.60;;;0.60;;
24801;SDS011;12898;50.520;12.152;2023-12-20T01:58:33;0.70;;;0.60;;
24801;SDS011;12898;50.520;12.152;2023-12-20T02:00:59;1.27;;;0.90;;
24801;SDS011;12898;50.520;12.152;2023-12-20T02:03:25;1.33;;;0.70;;
24801;SDS011;12898;50.520;12.152;2023-12-20T02:05:51;1.40;;;0.70;;
24801;SDS011;12898;50.520;12.152;2023-12-20T02:08:18;0.77;;;0.77;;
24801;SDS011;12898;50.520;12.152;2023-12-20T02:10:44;1.17;;;1.00;;
24801;SDS011;12898;50.520;12.152;2023-12-20T02:13:10;0.80;;;0.63;;
24801;SDS011;12898;50.520;12.152;2023-12-20T02:15:35;1.10;;;0.90;;
24801;SDS011;12898;50.520;12.152;2023-12-20T02:18:02;0.80;;;0.80;;
24801;SDS011;12898;50.520;12.152;2023-12-20T02:20:29;1.10;;;0.80;;
24801;SDS011;12898;50.520;12.152;2023-12-20T02:22:55;1.00;;;0.80;;
24801;SDS011;12898;50.520;12.152;2023-12-20T02:25:21;1.23;;;0.80;;
24801;SDS011;12898;50.520;12.152;2023-12-20T02:27:47;1.60;;;1.00;;
24801;SDS011;12898;50.520;12.152;2023-12-20T02:30:14;0.97;;;0.80;;
24801;SDS011;12898;50.520;12.152;2023-12-20T02:32:40;1.80;;;1.17;;
24801;SDS011;12898;50.520;12.152;2023-12-20T02:35:06;1.60;;;0.90;;
24801;SDS011;12898;50.520;12.152;2023-12-20T02:37:32;1.20;;;1.10;;
24801;SDS011;12898;50.520;12.152;2023-12-20T02:39:59;1.30;;;0.93;;
24801;SDS011;12898;50.520;12.152;2023-12-20T02:42:24;1.13;;;0.80;;
24801;SDS011;12898;50.520;12.152;2023-12-20T02:44:50;1.10;;;0.90;;
24801;SDS011;12898;50.520;12.152;2023-12-20T02:47:16;1.27;;;1.00;;
24801;SDS011;12898;50.520;12.152;2023-12-20T02:49:41;1.17;;;0.70;;
24801;SDS011;12898;50.520;12.152;2023-12-20T02:52:07;1.47;;;1.00;;
24801;SDS011;12898;50.520;12.152;2023-12-20T02:54:33;0.83;;;0.77;;
24801;SDS011;12898;50.520;12.152;2023-12-20T02:56:59;1.50;;;0.97;;
24801;SDS011;12898;50.520;12.152;2023-12-20T02:59:24;1.63;;;1.00;;
24801;SDS011;12898;50.520;12.152;2023-12-20T03:01:50;1.77;;;1.00;;
24801;SDS011;12898;50.520;12.152;2023-12-20T03:04:16;2.83;;;1.20;;
24801;SDS011;12898;50.520;12.152;2023-12-20T03:06:42;1.00;;;0.77;;
24801;SDS011;12898;50.520;12.152;2023-12-20T03:09:07;1.37;;;0.87;;
24801;SDS011;12898;50.520;12.152;2023-12-20T03:11:33;1.90;;;0.83;;
24801;SDS011;12898;50.520;12.152;2023-12-20T03:13:59;2.30;;;0.90;;
24801;SDS011;12898;50.520;12.152;2023-12-20T03:16:25;1.43;;;0.93;;
24801;SDS011;12898;50.520;12.152;2023-12-20T03:18:50;1.57;;;0.97;;
24801;SDS011;12898;50.520;12.152;2023-12-20T03:21:16;1.77;;;1.10;;
24801;SDS011;12898;50.520;12.152;2023-12-20T03:23:42;1.27;;;1.00;;
24801;SDS011;12898;50.520;12.152;2023-12-20T03:26:08;1.73;;;1.03;;
24801;SDS011;12898;50.520;12.152;2023-12-20T03:28:34;2.50;;;1.00;;
24801;SDS011;12898;50.520;12.152;2023-12-20T03:31:01;1.73;;;1.00;;
24801;SDS011;12898;50.520;12.152;2023-12-20T03:33:27;1.13;;;0.80;;
24801;SDS011;12898;50.520;12.152;2023-12-20T03:35:53;4.03;;;1.00;;
24801;SDS011;12898;50.520;12.152;2023-12-20T03:38:20;1.30;;;1.00;;
24801;SDS011;12898;50.520;12.152;2023-12-20T03:40:46;1.90;;;0.90;;
24801;SDS011;12898;50.520;12.152;2023-12-20T03:43:12;1.70;;;0.73;;
24801;SDS011;12898;50.520;12.152;2023-12-20T03:45:37;1.53;;;1.03;;
24801;SDS011;12898;50.520;12.152;2023-12-20T03:48:04;2.13;;;1.17;;
24801;SDS011;12898;50.520;12.152;2023-12-20T03:50:30;1.03;;;0.83;;
24801;SDS011;12898;50.520;12.152;2023-12-20T03:52:56;1.50;;;1.10;;
24801;SDS011;12898;50.520;12.152;2023-12-20T03:55:22;2.00;;;1.10;;
24801;SDS011;12898;50.520;12.152;2023-12-20T03:57:48;0.70;;;0.70;;
24801;SDS011;12898;50.520;12.152;2023-12-20T04:00:14;1.97;;;1.10;;
24801;SDS011;12898;50.520;12.152;2023-12-20T04:02:41;1.97;;;1.03;;
24801;SDS011;12898;50.520;12.152;2023-12-20T04:05:07;1.50;;;0.87;;
24801;SDS011;12898;50.520;12.152;2023-12-20T04:07:37;1.70;;;1.07;;
24801;SDS011;12898;50.520;12.152;2023-12-20T04:10:03;1.10;;;0.83;;
24801;SDS011;12898;50.520;12.152;2023-12-20T04:12:30;3.03;;;1.03;;
24801;SDS011;12898;50.520;12.152;2023-12-20T04:14:57;2.87;;;1.20;;
24801;SDS011;12898;50.520;12.152;2023-12-20T04:17:23;3.50;;;1.03;;
24801;SDS011;12898;50.520;12.152;2023-12-20T04:19:51;0.77;;;0.70;;
24801;SDS011;12898;50.520;12.152;2023-12-20T04:22:18;1.03;;;0.77;;
24801;SDS011;12898;50.520;12.152;2023-12-20T04:24:44;1.60;;;0.80;;
24801;SDS011;12898;50.520;12.152;2023-12-20T04:27:10;1.57;;;0.97;;
24801;SDS011;12898;50.520;12.152;2023-12-20T04:29:36;1.23;;;0.87;;
24801;SDS011;12898;50.520;12.152;2023-12-20T04:32:02;2.27;;;0.80;;
24801;SDS011;12898;50.520;12.152;2023-12-20T04:34:29;3.10;;;1.37;;
24801;SDS011;12898;50.520;12.152;2023-12-20T04:36:55;1.27;;;0.90;;
24801;SDS011;12898;50.520;12.152;2023-12-20T04:39:23;2.27;;;0.80;;
24801;SDS011;12898;50.520;12.152;2023-12-20T04:41:49;1.17;;;0.80;;
24801;SDS011;12898;50.520;12.152;2023-12-20T04:44:15;1.10;;;0.80;;
24801;SDS011;12898;50.520;12.152;2023-12-20T04:46:41;1.80;;;0.80;;
24801;SDS011;12898;50.520;12.152;2023-12-20T04:49:06;0.63;;;0.60;;
24801;SDS011;12898;50.520;12.152;2023-12-20T04:51:33;1.30;;;0.83;;
24801;SDS011;12898;50.520;12.152;2023-12-20T04:53:59;0.77;;;0.70;;
24801;SDS011;12898;50.520;12.152;2023-12-20T04:56:25;3.50;;;0.87;;
24801;SDS011;12898;50.520;12.152;2023-12-20T04:58:51;0.90;;;0.70;;
24801;SDS011;12898;50.520;12.152;2023-12-20T05:01:17;0.93;;;0.67;;
24801;SDS011;12898;50.520;12.152;2023-12-20T05:03:43;1.50;;;0.77;;
24801;SDS011;12898;50.520;12.152;2023-12-20T05:06:09;0.87;;;0.73;;
24801;SDS011;12898;50.520;12.152;2023-12-20T05:08:35;1.03;;;0.90;;
24801;SDS011;12898;50.520;12.152;2023-12-20T05:11:01;1.90;;;0.87;;
24801;SDS011;12898;50.520;12.152;2023-12-20T05:13:27;1.87;;;0.90;;
24801;SDS011;12898;50.520;12.152;2023-12-20T05:15:53;1.13;;;0.90;;
24801;SDS011;12898;50.520;12.152;2023-12-20T05:18:20;0.80;;;0.70;;
24801;SDS011;12898;50.520;12.152;2023-12-20T05:20:46;2.13;;;1.30;;
24801;SDS011;12898;50.520;12.152;2023-12-20T05:23:12;2.77;;;1.50;;
24801;SDS011;12898;50.520;12.152;2023-12-20T05:25:38;7.47;;;1.60;;
24801;SDS011;12898;50.520;12.152;2023-12-20T05:28:04;3.63;;;1.83;;
24801;SDS011;12898;50.520;12.152;2023-12-20T05:30:30;2.93;;;1.60;;
24801;SDS011;12898;50.520;12.152;2023-12-20T05:32:56;4.00;;;1.87;;
24801;SDS011;12898;50.520;12.152;2023-12-20T05:35:22;2.57;;;1.37;;
24801;SDS011;12898;50.520;12.152;2023-12-20T05:37:48;1.97;;;1.20;;
24801;SDS011;12898;50.520;12.152;2023-12-20T05:40:15;3.27;;;1.50;;
24801;SDS011;12898;50.520;12.152;2023-12-20T05:42:40;2.07;;;1.00;;
24801;SDS011;12898;50.520;12.152;2023-12-20T05:45:06;1.77;;;0.90;;
24801;SDS011;12898;50.520;12.152;2023-12-20T05:47:32;1.77;;;0.80;;
24801;SDS011;12898;50.520;12.152;2023-12-20T05:49:58;2.03;;;0.90;;
24801;SDS011;12898;50.520;12.152;2023-12-20T05:52:24;1.80;;;0.90;;
24801;SDS011;12898;50.520;12.152;2023-12-20T05:54:50;2.03;;;0.90;;
24801;SDS011;12898;50.520;12.152;2023-12-20T05:57:15;2.77;;;1.10;;
24801;SDS011;12898;50.520;12.152;2023-12-20T05:59:41;2.10;;;1.00;;
24801;SDS011;12898;50.520;12.152;2023-12-20T06:02:07;2.63;;;1.00;;
24801;SDS011;12898;50.520;12.152;2023-12-20T06:04:33;2.13;;;1.17;;
24801;SDS011;12898;50.520;12.152;2023-12-20T06:06:59;1.40;;;0.93;;
24801;SDS011;12898;50.520;12.152;2023-12-20T06:09:25;2.23;;;1.33;;
24801;SDS011;12898;50.520;12.152;2023-12-20T06:11:52;2.83;;;1.47;;
24801;SDS011;12898;50.520;12.152;2023-12-20T06:14:18;2.33;;;1.20;;
24801;SDS011;12898;50.520;12.152;2023-12-20T06:16:44;2.53;;;1.37;;
24801;SDS011;12898;50.520;12.152;2023-12-20T06:19:10;1.93;;;1.33;;
24801;SDS011;12898;50.520;12.152;2023-12-20T06:21:36;9.27;;;1.50;;
24801;SDS011;12898;50.520;12.152;2023-12-20T06:24:02;2.33;;;1.77;;
24801;SDS011;12898;50.520;12.152;2023-12-20T06:26:28;2.67;;;1.80;;
24801;SDS011;12898;50.520;12.152;2023-12-20T06:28:54;3.70;;;2.03;;
24801;SDS011;12898;50.520;12.152;2023-12-20T06:31:20;2.40;;;1.80;;
24801;SDS011;12898;50.520;12.152;2023-12-20T06:33:46;3.23;;;2.13;;
24801;SDS011;12898;50.520;12.152;2023-12-20T06:36:12;3.33;;;2.23;;
24801;SDS011;12898;50.520;12.152;2023-12-20T06:38:38;7.73;;;4.20;;
24801;SDS011;12898;50.520;12.152;2023-12-20T06:41:04;4.83;;;2.83;;
24801;SDS011;12898;50.520;12.152;2023-12-20T06:43:31;3.97;;;2.67;;
24801;SDS011;12898;50.520;12.152;2023-12-20T06:45:58;4.80;;;2.63;;
24801;SDS011;12898;50.520;12.152;2023-12-20T06:48:26;4.23;;;3.10;;
24801;SDS011;12898;50.520;12.152;2023-12-20T06:50:51;6.70;;;3.40;;
24801;SDS011;12898;50.520;12.152;2023-12-20T06:53:17;7.00;;;3.23;;
24801;SDS011;12898;50.520;12.152;2023-12-20T06:55:43;6.13;;;3.27;;
24801;SDS011;12898;50.520;12.152;2023-12-20T06:58:09;6.67;;;3.60;;
24801;SDS011;12898;50.520;12.152;2023-12-20T07:00:35;6.43;;;3.70;;
24801;SDS011;12898;50.520;12.152;2023-12-20T07:03:01;6.83;;;3.63;;
24801;SDS011;12898;50.520;12.152;2023-12-20T07:05:26;7.53;;;3.57;;
24801;SDS011;12898;50.520;12.152;2023-12-20T07:07:52;6.80;;;4.30;;
24801;SDS011;12898;50.520;12.152;2023-12-20T07:10:18;7.97;;;4.17;;
24801;SDS011;12898;50.520;12.152;2023-12-20T07:12:44;7.03;;;4.17;;
24801;SDS011;12898;50.520;12.152;2023-12-20T07:15:10;10.30;;;4.97;;
24801;SDS011;12898;50.520;12.152;2023-12-20T07:17:36;9.70;;;4.50;;
24801;SDS011;12898;50.520;12.152;2023-12-20T07:20:03;8.93;;;4.87;;
24801;SDS011;12898;50.520;12.152;2023-12-20T07:22:30;10.73;;;5.80;;
24801;SDS011;12898;50.520;12.152;2023-12-20T07:24:59;10.40;;;5.40;;
24801;SDS011;12898;50.520;12.152;2023-12-20T07:27:25;10.33;;;5.23;;
24801;SDS011;12898;50.520;12.152;2023-12-20T07:29:51;9.70;;;5.10;;
24801;SDS011;12898;50.520;12.152;2023-12-20T07:32:17;8.33;;;4.63;;
24801;SDS011;12898;50.520;12.152;2023-12-20T07:34:43;9.37;;;5.23;;
24801;SDS011;12898;50.520;12.152;2023-12-20T07:37:10;8.87;;;4.87;;
24801;SDS011;12898;50.520;12.152;2023-12-20T07:39:37;8.20;;;4.30;;
24801;SDS011;12898;50.520;12.152;2023-12-20T07:42:05;8.40;;;4.83;;
24801;SDS011;12898;50.520;12.152;2023-12-20T07:44:31;8.07;;;4.67;;
24801;SDS011;12898;50.520;12.152;2023-12-20T07:46:57;8.57;;;4.20;;
24801;SDS011;12898;50.520;12.152;2023-12-20T07:49:23;7.77;;;3.80;;
24801;SDS011;12898;50.520;12.152;2023-12-20T07:51:49;6.30;;;3.20;;
24801;SDS011;12898;50.520;12.152;2023-12-20T07:54:15;8.63;;;3.70;;
24801;SDS011;12898;50.520;12.152;2023-12-20T07:56:41;6.10;;;3.17;;
24801;SDS011;12898;50.520;12.152;2023-12-20T07:59:07;4.73;;;2.70;;
24801;SDS011;12898;50.520;12.152;2023-12-20T08:01:33;5.23;;;2.93;;
24801;SDS011;12898;50.520;12.152;2023-12-20T08:03:58;3.90;;;2.17;;
24801;SDS011;12898;50.520;12.152;2023-12-20T08:06:24;5.07;;;2.60;;
24801;SDS011;12898;50.520;12.152;2023-12-20T08:08:50;3.93;;;2.20;;
24801;SDS011;12898;50.520;12.152;2023-12-20T08:11:16;4.97;;;2.67;;
24801;SDS011;12898;50.520;12.152;2023-12-20T08:13:42;4.07;;;2.10;;
24801;SDS011;12898;50.520;12.152;2023-12-20T08:16:08;4.43;;;2.30;;
24801;SDS011;12898;50.520;12.152;2023-12-20T08:18:34;3.50;;;1.87;;
24801;SDS011;12898;50.520;12.152;2023-12-20T08:21:00;2.33;;;1.70;;
24801;SDS011;12898;50.520;12.152;2023-12-20T08:23:26;2.90;;;1.73;;
24801;SDS011;12898;50.520;12.152;2023-12-20T08:25:52;3.97;;;2.17;;
24801;SDS011;12898;50.520;12.152;2023-12-20T08:28:18;2.60;;;1.80;;
24801;SDS011;12898;50.520;12.152;2023-12-20T08:30:43;2.60;;;1.90;;
24801;SDS011;12898;50.520;12.152;2023-12-20T08:33:09;3.13;;;1.77;;
24801;SDS011;12898;50.520;12.152;2023-12-20T08:35:38;3.73;;;1.73;;
24801;SDS011;12898;50.520;12.152;2023-12-20T08:38:05;4.97;;;2.00;;
24801;SDS011;12898;50.520;12.152;2023-12-20T08:40:31;3.10;;;1.80;;
24801;SDS011;12898;50.520;12.152;2023-12-20T08:42:57;2.30;;;1.60;;
24801;SDS011;12898;50.520;12.152;2023-12-20T08:45:23;4.60;;;2.20;;
24801;SDS011;12898;50.520;12.152;2023-12-20T08:47:49;3.33;;;1.90;;
24801;SDS011;12898;50.520;12.152;2023-12-20T08:50:15;4.23;;;2.30;;
24801;SDS011;12898;50.520;12.152;2023-12-20T08:52:41;4.03;;;1.73;;
24801;SDS011;12898;50.520;12.152;2023-12-20T08:55:07;3.30;;;2.10;;
24801;SDS011;12898;50.520;12.152;2023-12-20T08:57:34;3.37;;;2.00;;
24801;SDS011;12898;50.520;12.152;2023-12-20T09:00:00;3.27;;;1.90;;
24801;SDS011;12898;50.520;12.152;2023-12-20T09:02:26;2.63;;;1.87;;
24801;SDS011;12898;50.520;12.152;2023-12-20T09:04:52;4.10;;;2.37;;
24801;SDS011;12898;50.520;12.152;2023-12-20T09:07:26;3.67;;;2.43;;
24801;SDS011;12898;50.520;12.152;2023-12-20T09:09:55;6.13;;;3.00;;
24801;SDS011;12898;50.520;12.152;2023-12-20T09:12:21;4.53;;;3.00;;
24801;SDS011;12898;50.520;12.152;2023-12-20T09:14:47;5.50;;;2.93;;
24801;SDS011;12898;50.520;12.152;2023-12-20T09:17:15;5.87;;;3.10;;
24801;SDS011;12898;50.520;12.152;2023-12-20T09:19:42;4.70;;;3.07;;
24801;SDS011;12898;50.520;12.152;2023-12-20T09:22:11;6.47;;;3.07;;
24801;SDS011;12898;50.520;12.152;2023-12-20T09:24:37;6.27;;;2.93;;
24801;SDS011;12898;50.520;12.152;2023-12-20T09:27:04;6.33;;;3.00;;
24801;SDS011;12898;50.520;12.152;2023-12-20T09:29:30;4.97;;;2.97;;
24801;SDS011;12898;50.520;12.152;2023-12-20T09:31:56;4.70;;;2.60;;
24801;SDS011;12898;50.520;12.152;2023-12-20T09:34:22;8.03;;;3.30;;
24801;SDS011;12898;50.520;12.152;2023-12-20T09:36:49;7.37;;;3.73;;
24801;SDS011;12898;50.520;12.152;2023-12-20T09:39:18;7.07;;;3.50;;
24801;SDS011;12898;50.520;12.152;2023-12-20T09:41:48;8.00;;;3.60;;
24801;SDS011;12898;50.520;12.152;2023-12-20T09:44:36;8.50;;;3.90;;
24801;SDS011;12898;50.520;12.152;2023-12-20T09:47:02;5.40;;;3.40;;
24801;SDS011;12898;50.520;12.152;2023-12-20T09:49:29;6.40;;;3.33;;
24801;SDS011;12898;50.520;12.152;2023-12-20T09:51:55;7.77;;;4.10;;
24801;SDS011;12898;50.520;12.152;2023-12-20T09:54:22;7.40;;;3.80;;
24801;SDS011;12898;50.520;12.152;2023-12-20T09:56:48;5.50;;;3.70;;
24801;SDS011;12898;50.520;12.152;2023-12-20T09:59:15;7.67;;;3.53;;
24801;SDS011;12898;50.520;12.152;2023-12-20T10:01:41;7.30;;;3.50;;
24801;SDS011;12898;50.520;12.152;2023-12-20T10:04:08;5.23;;;2.83;;
24801;SDS011;12898;50.520;12.152;2023-12-20T10:06:43;5.43;;;3.20;;
24801;SDS011;12898;50.520;12.152;2023-12-20T10:09:10;8.90;;;3.43;;
24801;SDS011;12898;50.520;12.152;2023-12-20T10:11:37;8.20;;;3.10;;
24801;SDS011;12898;50.520;12.152;2023-12-20T10:14:04;9.43;;;3.70;;
24801;SDS011;12898;50.520;12.152;2023-12-20T10:16:33;8.50;;;3.40;;
24801;SDS011;12898;50.520;12.152;2023-12-20T10:19:00;6.60;;;3.13;;
24801;SDS011;12898;50.520;12.152;2023-12-20T10:21:29;8.10;;;3.47;;
24801;SDS011;12898;50.520;12.152;2023-12-20T10:23:55;5.93;;;3.37;;
24801;SDS011;12898;50.520;12.152;2023-12-20T10:26:22;8.13;;;3.40;;
24801;SDS011;12898;50.520;12.152;2023-12-20T10:28:56;7.63;;;3.30;;
24801;SDS011;12898;50.520;12.152;2023-12-20T10:31:31;7.63;;;3.30;;
24801;SDS011;12898;50.520;12.152;2023-12-20T10:33:59;10.17;;;4.17;;
24801;SDS011;12898;50.520;12.152;2023-12-20T10:36:28;8.07;;;3.90;;
24801;SDS011;12898;50.520;12.152;2023-12-20T10:38:57;6.60;;;3.67;;
24801;SDS011;12898;50.520;12.152;2023-12-20T10:41:30;7.93;;;3.50;;
24801;SDS011;12898;50.520;12.152;2023-12-20T10:43:58;7.97;;;3.13;;
24801;SDS011;12898;50.520;12.152;2023-12-20T10:46:30;7.43;;;2.70;;
24801;SDS011;12898;50.520;12.152;2023-12-20T10:48:59;8.23;;;3.73;;
24801;SDS011;12898;50.520;12.152;2023-12-20T10:51:27;20.87;;;3.47;;
24801;SDS011;12898;50.520;12.152;2023-12-20T10:53:55;6.73;;;2.80;;
24801;SDS011;12898;50.520;12.152;2023-12-20T10:56:21;6.60;;;2.73;;
24801;SDS011;12898;50.520;12.152;2023-12-20T10:58:50;5.97;;;2.70;;
24801;SDS011;12898;50.520;12.152;2023-12-20T11:01:16;7.70;;;2.97;;
24801;SDS011;12898;50.520;12.152;2023-12-20T11:03:52;9.03;;;4.13;;
24801;SDS011;12898;50.520;12.152;2023-12-20T11:14:36;8.13;;;3.30;;
24801;SDS011;12898;50.520;12.152;2023-12-20T11:17:12;10.73;;;2.60;;
24801;SDS011;12898;50.520;12.152;2023-12-20T11:22:21;5.73;;;2.70;;
24801;SDS011;12898;50.520;12.152;2023-12-20T11:24:47;7.93;;;3.00;;
24801;SDS011;12898;50.520;12.152;2023-12-20T11:27:14;7.67;;;3.23;;
24801;SDS011;12898;50.520;12.152;2023-12-20T11:29:40;8.23;;;3.67;;
24801;SDS011;12898;50.520;12.152;2023-12-20T11:32:28;9.90;;;3.87;;
24801;SDS011;12898;50.520;12.152;2023-12-20T11:34:57;8.87;;;3.37;;
24801;SDS011;12898;50.520;12.152;2023-12-20T11:37:31;11.27;;;3.20;;
24801;SDS011;12898;50.520;12.152;2023-12-20T11:40:02;7.07;;;2.83;;
24801;SDS011;12898;50.520;12.152;2023-12-20T11:42:48;5.30;;;3.03;;
24801;SDS011;12898;50.520;12.152;2023-12-20T11:45:16;5.80;;;2.63;;
24801;SDS011;12898;50.520;12.152;2023-12-20T11:47:48;8.13;;;3.37;;
24801;SDS011;12898;50.520;12.152;2023-12-20T11:50:15;5.07;;;2.50;;
24801;SDS011;12898;50.520;12.152;2023-12-20T11:52:44;5.37;;;2.27;;
24801;SDS011;12898;50.520;12.152;2023-12-20T11:55:10;8.17;;;3.10;;
24801;SDS011;12898;50.520;12.152;2023-12-20T11:57:36;5.03;;;2.63;;
24801;SDS011;12898;50.520;12.152;2023-12-20T12:00:02;6.43;;;2.60;;
24801;SDS011;12898;50.520;12.152;2023-12-20T12:02:30;4.90;;;2.60;;
24801;SDS011;12898;50.520;12.152;2023-12-20T12:04:56;6.17;;;2.23;;
24801;SDS011;12898;50.520;12.152;2023-12-20T12:07:23;7.47;;;2.50;;
24801;SDS011;12898;50.520;12.152;2023-12-20T12:09:49;6.97;;;2.70;;
24801;SDS011;12898;50.520;12.152;2023-12-20T12:12:17;5.77;;;2.33;;
24801;SDS011;12898;50.520;12.152;2023-12-20T12:14:44;3.40;;;1.90;;
24801;SDS011;12898;50.520;12.152;2023-12-20T12:17:11;6.27;;;2.00;;
24801;SDS011;12898;50.520;12.152;2023-12-20T12:19:40;6.27;;;2.27;;
24801;SDS011;12898;50.520;12.152;2023-12-20T12:22:08;9.70;;;4.27;;
24801;SDS011;12898;50.520;12.152;2023-12-20T12:24:42;13.97;;;5.87;;
24801;SDS011;12898;50.520;12.152;2023-12-20T12:27:09;10.30;;;3.90;;
24801;SDS011;12898;50.520;12.152;2023-12-20T12:29:36;5.37;;;2.67;;
24801;SDS011;12898;50.520;12.152;2023-12-20T12:32:09;9.00;;;2.60;;
24801;SDS011;12898;50.520;12.152;2023-12-20T12:34:37;5.60;;;2.43;;
24801;SDS011;12898;50.520;12.152;2023-12-20T12:37:04;5.30;;;2.30;;
24801;SDS011;12898;50.520;12.152;2023-12-20T12:39:30;6.73;;;2.20;;
24801;SDS011;12898;50.520;12.152;2023-12-20T12:41:56;4.87;;;2.00;;
24801;SDS011;12898;50.520;12.152;2023-12-20T12:44:22;6.00;;;1.90;;
24801;SDS011;12898;50.520;12.152;2023-12-20T12:46:51;8.03;;;2.10;;
24801;SDS011;12898;50.520;12.152;2023-12-20T12:49:18;6.13;;;2.10;;
24801;SDS011;12898;50.520;12.152;2023-12-20T12:51:46;8.80;;;1.87;;
24801;SDS011;12898;50.520;12.152;2023-12-20T12:54:12;7.20;;;1.57;;
24801;SDS011;12898;50.520;12.152;2023-12-20T12:56:40;4.57;;;2.30;;
24801;SDS011;12898;50.520;12.152;2023-12-20T12:59:06;4.97;;;1.80;;
24801;SDS011;12898;50.520;12.152;2023-12-20T13:01:32;3.37;;;1.70;;
24801;SDS011;12898;50.520;12.152;2023-12-20T13:03:58;5.37;;;1.70;;
24801;SDS011;12898;50.520;12.152;2023-12-20T13:06:23;5.03;;;1.63;;
24801;SDS011;12898;50.520;12.152;2023-12-20T13:08:49;4.67;;;1.70;;
24801;SDS011;12898;50.520;12.152;2023-12-20T13:11:15;4.40;;;1.63;;
24801;SDS011;12898;50.520;12.152;2023-12-20T13:13:41;5.87;;;1.40;;
24801;SDS011;12898;50.520;12.152;2023-12-20T13:16:07;4.93;;;1.60;;
24801;SDS011;12898;50.520;12.152;2023-12-20T13:18:33;2.87;;;1.40;;
24801;SDS011;12898;50.520;12.152;2023-12-20T13:20:58;3.10;;;1.43;;
24801;SDS011;12898;50.520;12.152;2023-12-20T13:23:24;3.27;;;1.37;;
24801;SDS011;12898;50.520;12.152;2023-12-20T13:25:50;3.57;;;1.60;;
24801;SDS011;12898;50.520;12.152;2023-12-20T13:28:16;4.53;;;1.80;;
24801;SDS011;12898;50.520;12.152;2023-12-20T13:30:42;3.73;;;1.83;;
24801;SDS011;12898;50.520;12.152;2023-12-20T13:33:08;3.53;;;1.40;;
24801;SDS011;12898;50.520;12.152;2023-12-20T13:35:34;4.83;;;1.80;;
24801;SDS011;12898;50.520;12.152;2023-12-20T13:38:00;3.33;;;1.40;;
24801;SDS011;12898;50.520;12.152;2023-12-20T13:40:26;4.63;;;1.57;;
24801;SDS011;12898;50.520;12.152;2023-12-20T13:42:53;5.50;;;1.80;;
24801;SDS011;12898;50.520;12.152;2023-12-20T13:45:20;4.37;;;1.77;;
24801;SDS011;12898;50.520;12.152;2023-12-20T13:47:45;5.40;;;1.70;;
24801;SDS011;12898;50.520;12.152;2023-12-20T13:50:11;4.87;;;2.13;;
24801;SDS011;12898;50.520;12.152;2023-12-20T13:52:37;6.20;;;1.80;;
24801;SDS011;12898;50.520;12.152;2023-12-20T13:55:03;4.90;;;1.83;;
24801;SDS011;12898;50.520;12.152;2023-12-20T13:57:31;9.00;;;2.07;;
24801;SDS011;12898;50.520;12.152;2023-12-20T13:59:57;5.67;;;2.00;;
24801;SDS011;12898;50.520;12.152;2023-12-20T14:02:23;4.43;;;1.70;;
24801;SDS011;12898;50.520;12.152;2023-12-20T14:04:48;4.77;;;1.40;;
24801;SDS011;12898;50.520;12.152;2023-12-20T14:07:14;5.03;;;1.77;;
24801;SDS011;12898;50.520;12.152;2023-12-20T14:09:40;5.90;;;1.93;;
24801;SDS011;12898;50.520;12.152;2023-12-20T14:12:10;5.13;;;1.80;;
24801;SDS011;12898;50.520;12.152;2023-12-20T14:14:37;4.30;;;1.77;;
24801;SDS011;12898;50.520;12.152;2023-12-20T14:17:03;5.37;;;1.87;;
24801;SDS011;12898;50.520;12.152;2023-12-20T14:19:31;3.63;;;1.70;;
24801;SDS011;12898;50.520;12.152;2023-12-20T14:21:57;5.33;;;1.77;;
24801;SDS011;12898;50.520;12.152;2023-12-20T14:24:26;3.40;;;1.80;;
24801;SDS011;12898;50.520;12.152;2023-12-20T14:26:52;3.80;;;1.90;;
24801;SDS011;12898;50.520;12.152;2023-12-20T14:29:18;4.33;;;1.70;;
24801;SDS011;12898;50.520;12.152;2023-12-20T14:31:44;7.67;;;1.90;;
24801;SDS011;12898;50.520;12.152;2023-12-20T14:34:10;7.97;;;1.90;;
24801;SDS011;12898;50.520;12.152;2023-12-20T14:36:36;4.93;;;1.60;;
24801;SDS011;12898;50.520;12.152;2023-12-20T14:39:02;6.07;;;1.83;;
24801;SDS011;12898;50.520;12.152;2023-12-20T14:41:30;5.63;;;1.67;;